sensor_id;sensor_type;location;lat;lon;timestamp;pressure;altitude;pressure_sealevel;temperature;humidity
13732;BME280;6937;56.096;12.664;2023-05-18T00:02:24;102186.63;;;8.29;100.00
13732;BME280;6937;56.096;12.664;2023-05-18T00:04:50;102197.97;;;8.34;100.00
13732;BME280;6937;56.096;12.664;2023-05-18T00:07:16;102191.13;;;8.26;100.00
13732;BME280;6937;56.096;12.664;2023-05-18T00:09:42;102192.00;;;8.27;100.00
13732;BME280;6937;56.096;12.664;2023-05-18T00:12:08;102191.47;;;8.17;100.00
13732;BME280;6937;56.096;12.664;2023-05-18T00:14:34;102185.41;;;8.14;100.00
13732;BME280;6937;56.096;12.664;2023-05-18T00:17:00;102189.81;;;8.15;100.00
13732;BME280;6937;56.096;12.664;2023-05-18T00:19:27;102188.19;;;8.11;100.00
13732;BME280;6937;56.096;12.664;2023-05-18T00:21:57;102191.69;;;8.13;100.00
13732;BME280;6937;56.096;12.664;2023-05-18T00:24:23;102181.94;;;8.12;100.00
13732;BME280;6937;56.096;12.664;2023-05-18T00:26:49;102188.19;;;8.11;100.00
13732;BME280;6937;56.096;12.664;2023-05-18T00:29:14;102187.31;;;8.10;100.00
13732;BME280;6937;56.096;12.664;2023-05-18T00:31:41;102202.44;;;8.10;100.00
13732;BME280;6937;56.096;12.664;2023-05-18T00:34:13;102203.44;;;8.07;100.00
13732;BME280;6937;56.096;12.664;2023-05-18T00:36:39;102203.56;;;8.04;100.00
13732;BME280;6937;56.096;12.664;2023-05-18T00:39:07;102200.94;;;8.03;100.00
13732;BME280;6937;56.096;12.664;2023-05-18T00:41:36;102205.47;;;8.01;100.00
13732;BME280;6937;56.096;12.664;2023-05-18T00:44:02;102206.47;;;7.98;100.00
13732;BME280;6937;56.096;12.664;2023-05-18T00:46:29;102207.38;;;7.97;100.00
13732;BME280;6937;56.096;12.664;2023-05-18T00:48:55;102207.38;;;7.97;100.00
13732;BME280;6937;56.096;12.664;2023-05-18T00:51:26;102209.97;;;7.99;100.00
13732;BME280;6937;56.096;12.664;2023-05-18T00:53:54;102199.53;;;7.94;100.00
13732;BME280;6937;56.096;12.664;2023-05-18T00:56:21;102200.63;;;7.89;100.00
13732;BME280;6937;56.096;12.664;2023-05-18T00:58:55;102204.28;;;7.86;100.00
13732;BME280;6937;56.096;12.664;2023-05-18T01:01:29;102197.25;;;7.84;100.00
13732;BME280;6937;56.096;12.664;2023-05-18T01:03:59;102195.66;;;7.80;100.00
13732;BME280;6937;56.096;12.664;2023-05-18T01:06:29;102196.69;;;7.75;100.00
13732;BME280;6937;56.096;12.664;2023-05-18T01:09:05;102199.66;;;7.68;100.00
13732;BME280;6937;56.096;12.664;2023-05-18T01:12:02;102202.31;;;7.68;100.00
13732;BME280;6937;56.096;12.664;2023-05-18T01:25:35;102221.56;;;7.74;100.00
13732;BME280;6937;56.096;12.664;2023-05-18T01:28:11;102219.03;;;7.71;100.00
13732;BME280;6937;56.096;12.664;2023-05-18T01:30:40;102230.63;;;7.69;100.00
13732;BME280;6937;56.096;12.664;2023-05-18T01:33:10;102253.66;;;7.70;100.00
13732;BME280;6937;56.096;12.664;2023-05-18T01:35:38;102236.69;;;7.72;100.00
13732;BME280;6937;56.096;12.664;2023-05-18T01:38:06;102244.69;;;7.72;100.00
13732;BME280;6937;56.096;12.664;2023-05-18T01:41:21;102244.69;;;7.72;100.00
13732;BME280;6937;56.096;12.664;2023-05-18T01:43:28;102240.19;;;7.74;100.00
13732;BME280;6937;56.096;12.664;2023-05-18T01:46:03;102242.84;;;7.74;100.00
13732;BME280;6937;56.096;12.664;2023-05-18T01:48:30;102246.28;;;7.78;100.00
13732;BME280;6937;56.096;12.664;2023-05-18T01:50:59;102240.06;;;7.77;100.00
13732;BME280;6937;56.096;12.664;2023-05-18T01:53:38;102231.34;;;7.74;100.00
13732;BME280;6937;56.096;12.664;2023-05-18T01:56:07;102241.19;;;7.72;100.00
13732;BME280;6937;56.096;12.664;2023-05-18T01:58:35;102248.22;;;7.73;100.00
13732;BME280;6937;56.096;12.664;2023-05-18T02:01:02;102253.50;;;7.74;100.00
13732;BME280;6937;56.096;12.664;2023-05-18T02:03:30;102251.75;;;7.73;100.00
13732;BME280;6937;56.096;12.664;2023-05-18T02:05:57;102257.03;;;7.75;100.00
13732;BME280;6937;56.096;12.664;2023-05-18T02:08:23;102254.38;;;7.75;100.00
13732;BME280;6937;56.096;12.664;2023-05-18T02:10:49;102258.81;;;7.74;100.00
13732;BME280;6937;56.096;12.664;2023-05-18T02:13:15;102260.72;;;7.71;100.00
13732;BME280;6937;56.096;12.664;2023-05-18T02:15:41;102260.66;;;7.72;100.00
13732;BME280;6937;56.096;12.664;2023-05-18T02:18:08;102261.53;;;7.73;100.00
13732;BME280;6937;56.096;12.664;2023-05-18T02:20:34;102257.19;;;7.70;100.00
13732;BME280;6937;56.096;12.664;2023-05-18T02:23:02;102253.75;;;7.68;100.00
13732;BME280;6937;56.096;12.664;2023-05-18T02:25:28;102259.97;;;7.67;100.00
13732;BME280;6937;56.096;12.664;2023-05-18T02:27:54;102258.28;;;7.65;100.00
13732;BME280;6937;56.096;12.664;2023-05-18T02:30:20;102257.47;;;7.63;100.00
13732;BME280;6937;56.096;12.664;2023-05-18T02:32:45;102253.03;;;7.63;100.00
13732;BME280;6937;56.096;12.664;2023-05-18T02:35:14;102261.88;;;7.64;100.00
13732;BME280;6937;56.096;12.664;2023-05-18T02:37:40;102267.22;;;7.64;100.00
13732;BME280;6937;56.096;12.664;2023-05-18T02:40:12;102262.00;;;7.61;100.00
13732;BME280;6937;56.096;12.664;2023-05-18T02:42:40;102261.06;;;7.62;100.00
13732;BME280;6937;56.096;12.664;2023-05-18T02:45:07;102266.34;;;7.63;100.00
13732;BME280;6937;56.096;12.664;2023-05-18T02:47:33;102263.56;;;7.66;100.00
13732;BME280;6937;56.096;12.664;2023-05-18T02:49:59;102264.44;;;7.67;100.00
13732;BME280;6937;56.096;12.664;2023-05-18T02:52:25;102261.00;;;7.63;100.00
13732;BME280;6937;56.096;12.664;2023-05-18T02:54:52;102267.31;;;7.61;100.00
13732;BME280;6937;56.096;12.664;2023-05-18T02:57:19;102267.31;;;7.61;100.00
13732;BME280;6937;56.096;12.664;2023-05-18T02:59:46;102271.81;;;7.59;100.00
13732;BME280;6937;56.096;12.664;2023-05-18T03:02:12;102267.31;;;7.61;100.00
13732;BME280;6937;56.096;12.664;2023-05-18T03:04:38;102268.06;;;7.64;100.00
13732;BME280;6937;56.096;12.664;2023-05-18T03:07:04;102267.09;;;7.67;100.00
13732;BME280;6937;56.096;12.664;2023-05-18T03:09:31;102269.78;;;7.65;100.00
13732;BME280;6937;56.096;12.664;2023-05-18T03:11:57;102268.88;;;7.66;100.00
13732;BME280;6937;56.096;12.664;2023-05-18T03:14:23;102271.50;;;7.68;100.00
13732;BME280;6937;56.096;12.664;2023-05-18T03:16:49;102284.72;;;7.69;100.00
13732;BME280;6937;56.096;12.664;2023-05-18T03:19:19;102276.97;;;7.63;100.00
13732;BME280;6937;56.096;12.664;2023-05-18T03:21:45;102273.31;;;7.66;100.00
13732;BME280;6937;56.096;12.664;2023-05-18T03:24:14;102282.94;;;7.70;100.00
13732;BME280;6937;56.096;12.664;2023-05-18T03:26:40;102286.31;;;7.75;100.00
13732;BME280;6937;56.096;12.664;2023-05-18T03:29:09;102287.94;;;7.79;100.00
13732;BME280;6937;56.096;12.664;2023-05-18T03:31:35;102289.66;;;7.80;100.00
13732;BME280;6937;56.096;12.664;2023-05-18T03:34:01;102289.72;;;7.78;100.00
13732;BME280;6937;56.096;12.664;2023-05-18T03:36:26;102286.06;;;7.81;100.00
13732;BME280;6937;56.096;12.664;2023-05-18T03:38:52;102294.97;;;7.80;100.00
13732;BME280;6937;56.096;12.664;2023-05-18T03:41:21;102295.94;;;7.79;100.00
13732;BME280;6937;56.096;12.664;2023-05-18T03:43:47;102304.72;;;7.81;100.00
13732;BME280;6937;56.096;12.664;2023-05-18T03:46:16;102302.22;;;7.76;100.00
13732;BME280;6937;56.096;12.664;2023-05-18T03:48:42;102308.28;;;7.80;100.00
13732;BME280;6937;56.096;12.664;2023-05-18T03:51:07;102300.25;;;7.82;100.00
13732;BME280;6937;56.096;12.664;2023-05-18T03:53:33;102317.16;;;7.81;100.00
13732;BME280;6937;56.096;12.664;2023-05-18T03:56:00;102314.44;;;7.82;100.00
13732;BME280;6937;56.096;12.664;2023-05-18T03:58:26;102313.28;;;7.89;100.00
13732;BME280;6937;56.096;12.664;2023-05-18T04:00:53;102322.16;;;7.90;100.00
13732;BME280;6937;56.096;12.664;2023-05-18T04:03:19;102328.00;;;7.99;100.00
13732;BME280;6937;56.096;12.664;2023-05-18T04:05:45;102327.03;;;8.02;100.00
13732;BME280;6937;56.096;12.664;2023-05-18T04:08:11;102324.41;;;8.00;100.00
13732;BME280;6937;56.096;12.664;2023-05-18T04:10:41;102332.34;;;8.02;100.00
13732;BME280;6937;56.096;12.664;2023-05-18T04:13:07;102331.50;;;8.01;100.00
13732;BME280;6937;56.096;12.664;2023-05-18T04:15:33;102335.94;;;8.01;100.00
13732;BME280;6937;56.096;12.664;2023-05-18T04:17:59;102340.38;;;8.00;100.00
13732;BME280;6937;56.096;12.664;2023-05-18T04:20:27;102335.06;;;8.00;100.00
13732;BME280;6937;56.096;12.664;2023-05-18T04:22:54;102346.69;;;7.98;100.00
13732;BME280;6937;56.096;12.664;2023-05-18T04:25:22;102346.75;;;7.96;100.00
13732;BME280;6937;56.096;12.664;2023-05-18T04:27:53;102350.16;;;8.00;100.00
13732;BME280;6937;56.096;12.664;2023-05-18T04:30:19;102352.66;;;8.04;100.00
13732;BME280;6937;56.096;12.664;2023-05-18T04:32:47;102350.13;;;8.01;100.00
13732;BME280;6937;56.096;12.664;2023-05-18T04:35:14;102366.22;;;7.98;100.00
13732;BME280;6937;56.096;12.664;2023-05-18T04:37:40;102356.59;;;7.94;100.00
13732;BME280;6937;56.096;12.664;2023-05-18T04:40:13;102356.59;;;7.94;100.00
13732;BME280;6937;56.096;12.664;2023-05-18T04:42:44;102359.25;;;7.94;100.00
13732;BME280;6937;56.096;12.664;2023-05-18T04:45:19;102365.25;;;7.99;100.00
13732;BME280;6937;56.096;12.664;2023-05-18T04:47:46;102374.13;;;8.00;100.00
13732;BME280;6937;56.096;12.664;2023-05-18T04:50:18;102367.78;;;8.04;100.00
13732;BME280;6937;56.096;12.664;2023-05-18T04:52:45;102368.81;;;8.00;100.00
13732;BME280;6937;56.096;12.664;2023-05-18T04:55:20;102366.09;;;8.01;100.00
13732;BME280;6937;56.096;12.664;2023-05-18T04:57:53;102363.91;;;8.12;100.00
13732;BME280;6937;56.096;12.664;2023-05-18T05:00:22;102362.81;;;8.18;100.00
13732;BME280;6937;56.096;12.664;2023-05-18T05:02:49;102362.81;;;8.18;100.00
13732;BME280;6937;56.096;12.664;2023-05-18T05:05:15;102358.50;;;8.14;100.00
13732;BME280;6937;56.096;12.664;2023-05-18T05:07:42;102360.97;;;8.20;100.00
13732;BME280;6937;56.096;12.664;2023-05-18T05:10:08;102373.66;;;8.13;100.00
13732;BME280;6937;56.096;12.664;2023-05-18T05:12:37;102373.69;;;8.12;100.00
13732;BME280;6937;56.096;12.664;2023-05-18T05:15:04;102378.75;;;8.19;100.00
13732;BME280;6937;56.096;12.664;2023-05-18T05:17:29;102379.38;;;8.26;100.00
13732;BME280;6937;56.096;12.664;2023-05-18T05:19:55;102374.91;;;8.26;100.00
13732;BME280;6937;56.096;12.664;2023-05-18T05:22:21;102381.75;;;8.35;100.00
13732;BME280;6937;56.096;12.664;2023-05-18T05:24:47;102380.03;;;8.33;100.00
13732;BME280;6937;56.096;12.664;2023-05-18T05:27:13;102385.91;;;8.42;100.00
13732;BME280;6937;56.096;12.664;2023-05-18T05:29:39;102398.19;;;8.46;100.00
13732;BME280;6937;56.096;12.664;2023-05-18T05:32:05;102404.91;;;8.56;100.00
13732;BME280;6937;56.096;12.664;2023-05-18T05:34:31;102405.66;;;8.60;100.00
13732;BME280;6937;56.096;12.664;2023-05-18T05:36:57;102412.84;;;8.58;100.00
13732;BME280;6937;56.096;12.664;2023-05-18T05:39:23;102420.03;;;8.56;100.00
13732;BME280;6937;56.096;12.664;2023-05-18T05:41:49;102417.31;;;8.57;100.00
13732;BME280;6937;56.096;12.664;2023-05-18T05:44:14;102420.78;;;8.59;100.00
13732;BME280;6937;56.096;12.664;2023-05-18T05:46:40;102433.81;;;8.67;100.00
13732;BME280;6937;56.096;12.664;2023-05-18T05:49:06;102433.31;;;8.57;100.00
13732;BME280;6937;56.096;12.664;2023-05-18T05:51:31;102441.03;;;8.65;100.00
13732;BME280;6937;56.096;12.664;2023-05-18T05:53:57;102442.75;;;8.66;100.00
13732;BME280;6937;56.096;12.664;2023-05-18T05:56:23;102446.47;;;8.62;100.00
13732;BME280;6937;56.096;12.664;2023-05-18T05:58:49;102448.84;;;8.69;100.00
13732;BME280;6937;56.096;12.664;2023-05-18T06:01:15;102450.41;;;8.75;100.00
13732;BME280;6937;56.096;12.664;2023-05-18T06:03:41;102461.19;;;8.72;100.00
13732;BME280;6937;56.096;12.664;2023-05-18T06:06:09;102457.88;;;8.65;100.00
13732;BME280;6937;56.096;12.664;2023-05-18T06:08:35;102469.34;;;8.67;100.00
13732;BME280;6937;56.096;12.664;2023-05-18T06:11:02;102470.25;;;8.66;100.00
13732;BME280;6937;56.096;12.664;2023-05-18T06:13:28;102470.25;;;8.66;100.00
13732;BME280;6937;56.096;12.664;2023-05-18T06:15:54;102470.09;;;8.71;100.00
13732;BME280;6937;56.096;12.664;2023-05-18T06:18:19;102471.56;;;8.80;100.00
13732;BME280;6937;56.096;12.664;2023-05-18T06:20:45;102481.97;;;8.86;100.00
13732;BME280;6937;56.096;12.664;2023-05-18T06:23:11;102477.53;;;8.86;100.00
13732;BME280;6937;56.096;12.664;2023-05-18T06:25:37;102492.75;;;8.83;100.00
13732;BME280;6937;56.096;12.664;2023-05-18T06:28:03;102488.06;;;8.89;100.00
13732;BME280;6937;56.096;12.664;2023-05-18T06:30:29;102487.66;;;9.00;100.00
13732;BME280;6937;56.096;12.664;2023-05-18T06:32:55;102493.34;;;9.14;100.00
13732;BME280;6937;56.096;12.664;2023-05-18T06:35:21;102498.44;;;9.20;100.00
13732;BME280;6937;56.096;12.664;2023-05-18T06:37:48;102489.38;;;9.24;100.00
13732;BME280;6937;56.096;12.664;2023-05-18T06:40:14;102496.47;;;9.25;100.00
13732;BME280;6937;56.096;12.664;2023-05-18T06:42:40;102495.91;;;9.39;100.00
13732;BME280;6937;56.096;12.664;2023-05-18T06:45:06;102502.25;;;9.36;100.00
13732;BME280;6937;56.096;12.664;2023-05-18T06:47:32;102503.75;;;9.20;100.00
13732;BME280;6937;56.096;12.664;2023-05-18T06:49:58;102509.81;;;9.25;100.00
13732;BME280;6937;56.096;12.664;2023-05-18T06:52:23;102502.13;;;9.39;100.00
13732;BME280;6937;56.096;12.664;2023-05-18T06:54:49;102511.00;;;9.40;100.00
13732;BME280;6937;56.096;12.664;2023-05-18T06:57:16;102527.59;;;9.25;100.00
13732;BME280;6937;56.096;12.664;2023-05-18T06:59:42;102529.00;;;9.11;100.00
13732;BME280;6937;56.096;12.664;2023-05-18T07:02:10;102525.56;;;9.08;100.00
13732;BME280;6937;56.096;12.664;2023-05-18T07:04:36;102534.41;;;9.10;100.00
13732;BME280;6937;56.096;12.664;2023-05-18T07:07:02;102532.88;;;9.26;100.00
13732;BME280;6937;56.096;12.664;2023-05-18T07:09:28;102540.72;;;9.52;100.00
13732;BME280;6937;56.096;12.664;2023-05-18T07:11:54;102533.09;;;9.65;100.00
13732;BME280;6937;56.096;12.664;2023-05-18T07:14:19;102549.94;;;9.67;100.00
13732;BME280;6937;56.096;12.664;2023-05-18T07:16:45;102551.09;;;9.60;100.00
13732;BME280;6937;56.096;12.664;2023-05-18T07:19:12;102547.31;;;9.65;100.00
13732;BME280;6937;56.096;12.664;2023-05-18T07:21:38;102548.81;;;9.73;100.00
13732;BME280;6937;56.096;12.664;2023-05-18T07:24:04;102555.03;;;9.73;100.00
13732;BME280;6937;56.096;12.664;2023-05-18T07:26:30;102556.50;;;9.80;100.00
13732;BME280;6937;56.096;12.664;2023-05-18T07:28:56;102553.28;;;9.94;100.00
13732;BME280;6937;56.096;12.664;2023-05-18T07:31:22;102560.19;;;9.99;100.00
13732;BME280;6937;56.096;12.664;2023-05-18T07:33:48;102563.28;;;10.10;100.00
13732;BME280;6937;56.096;12.664;2023-05-18T07:36:14;102569.84;;;10.24;100.00
13732;BME280;6937;56.096;12.664;2023-05-18T07:38:39;102562.28;;;10.35;100.00
13732;BME280;6937;56.096;12.664;2023-05-18T07:41:05;102565.81;;;10.35;100.00
13732;BME280;6937;56.096;12.664;2023-05-18T07:43:31;102579.44;;;10.29;100.00
13732;BME280;6937;56.096;12.664;2023-05-18T07:45:57;102572.91;;;10.36;100.00
13732;BME280;6937;56.096;12.664;2023-05-18T07:48:23;102569.16;;;10.40;100.00
13732;BME280;6937;56.096;12.664;2023-05-18T07:50:48;102573.13;;;10.52;100.00
13732;BME280;6937;56.096;12.664;2023-05-18T07:53:14;102578.13;;;10.59;100.00
13732;BME280;6937;56.096;12.664;2023-05-18T07:55:40;102576.16;;;10.43;100.00
13732;BME280;6937;56.096;12.664;2023-05-18T07:58:06;102581.78;;;10.37;100.00
13732;BME280;6937;56.096;12.664;2023-05-18T08:00:32;102584.41;;;10.38;100.00
13732;BME280;6937;56.096;12.664;2023-05-18T08:03:01;102583.03;;;10.28;100.00
13732;BME280;6937;56.096;12.664;2023-05-18T08:05:26;102589.25;;;10.29;100.00
13732;BME280;6937;56.096;12.664;2023-05-18T08:07:52;102592.63;;;10.34;100.00
13732;BME280;6937;56.096;12.664;2023-05-18T08:10:18;102601.81;;;10.27;100.00
13732;BME280;6937;56.096;12.664;2023-05-18T08:12:43;102593.03;;;10.45;100.00
13732;BME280;6937;56.096;12.664;2023-05-18T08:15:10;102586.59;;;10.29;100.00
13732;BME280;6937;56.096;12.664;2023-05-18T08:17:36;102602.47;;;10.32;100.00
13732;BME280;6937;56.096;12.664;2023-05-18T08:20:02;102595.63;;;10.46;100.00
13732;BME280;6937;56.096;12.664;2023-05-18T08:22:32;102599.66;;;10.56;100.00
13732;BME280;6937;56.096;12.664;2023-05-18T08:24:58;102595.59;;;10.68;100.00
13732;BME280;6937;56.096;12.664;2023-05-18T08:27:25;102598.72;;;10.78;100.00
13732;BME280;6937;56.096;12.664;2023-05-18T08:29:50;102598.56;;;10.81;100.00
13732;BME280;6937;56.096;12.664;2023-05-18T08:32:17;102611.56;;;10.70;100.00
13732;BME280;6937;56.096;12.664;2023-05-18T08:34:43;102602.88;;;10.64;100.00
13732;BME280;6937;56.096;12.664;2023-05-18T08:37:09;102602.53;;;10.72;100.00
13732;BME280;6937;56.096;12.664;2023-05-18T08:39:34;102616.31;;;10.83;100.00
13732;BME280;6937;56.096;12.664;2023-05-18T08:42:06;102607.28;;;10.86;100.00
13732;BME280;6937;56.096;12.664;2023-05-18T08:44:45;102610.69;;;11.09;100.00
13732;BME280;6937;56.096;12.664;2023-05-18T08:47:13;102614.22;;;11.29;100.00
13732;BME280;6937;56.096;12.664;2023-05-18T08:49:41;102604.75;;;11.40;100.00
13732;BME280;6937;56.096;12.664;2023-05-18T08:52:07;102613.03;;;11.36;100.00
13732;BME280;6937;56.096;12.664;2023-05-18T08:54:35;102614.09;;;11.13;100.00
13732;BME280;6937;56.096;12.664;2023-05-18T08:57:03;102615.34;;;11.25;100.00
13732;BME280;6937;56.096;12.664;2023-05-18T08:59:32;102629.84;;;11.19;100.00
13732;BME280;6937;56.096;12.664;2023-05-18T09:02:00;102630.25;;;11.10;100.00
13732;BME280;6937;56.096;12.664;2023-05-18T09:04:26;102629.47;;;11.08;100.00
13732;BME280;6937;56.096;12.664;2023-05-18T09:06:53;102620.88;;;11.20;100.00
13732;BME280;6937;56.096;12.664;2023-05-18T09:09:20;102623.13;;;11.29;100.00
13732;BME280;6937;56.096;12.664;2023-05-18T09:11:46;102618.00;;;11.25;100.00
13732;BME280;6937;56.096;12.664;2023-05-18T09:14:12;102621.19;;;11.33;100.00
13732;BME280;6937;56.096;12.664;2023-05-18T09:16:38;102617.91;;;11.26;100.00
13732;BME280;6937;56.096;12.664;2023-05-18T09:19:03;102615.56;;;11.39;100.00
13732;BME280;6937;56.096;12.664;2023-05-18T09:21:30;102616.72;;;11.52;100.00
13732;BME280;6937;56.096;12.664;2023-05-18T09:23:56;102615.63;;;11.56;100.00
13732;BME280;6937;56.096;12.664;2023-05-18T09:26:21;102622.94;;;11.52;100.00
13732;BME280;6937;56.096;12.664;2023-05-18T09:28:51;102615.44;;;11.22;100.00
13732;BME280;6937;56.096;12.664;2023-05-18T09:31:18;102628.09;;;11.18;100.00
13732;BME280;6937;56.096;12.664;2023-05-18T09:33:45;102623.63;;;11.19;100.00
13732;BME280;6937;56.096;12.664;2023-05-18T09:36:11;102617.88;;;11.28;100.00
13732;BME280;6937;56.096;12.664;2023-05-18T09:38:41;102611.88;;;11.41;100.00
13732;BME280;6937;56.096;12.664;2023-05-18T09:41:13;102610.34;;;11.36;100.00
13732;BME280;6937;56.096;12.664;2023-05-18T09:43:40;102614.84;;;11.54;100.00
13732;BME280;6937;56.096;12.664;2023-05-18T09:46:08;102613.97;;;11.35;100.00
13732;BME280;6937;56.096;12.664;2023-05-18T09:48:35;102605.34;;;11.28;100.00
13732;BME280;6937;56.096;12.664;2023-05-18T09:51:02;102606.31;;;11.64;100.00
13732;BME280;6937;56.096;12.664;2023-05-18T09:53:28;102614.53;;;11.80;100.00
13732;BME280;6937;56.096;12.664;2023-05-18T09:55:53;102611.28;;;12.09;100.00
13732;BME280;6937;56.096;12.664;2023-05-18T09:58:19;102606.09;;;12.24;100.00
13732;BME280;6937;56.096;12.664;2023-05-18T10:00:48;102598.72;;;12.46;100.00
13732;BME280;6937;56.096;12.664;2023-05-18T10:03:22;102621.69;;;12.16;100.00
13732;BME280;6937;56.096;12.664;2023-05-18T10:05:48;102614.41;;;11.63;100.00
13732;BME280;6937;56.096;12.664;2023-05-18T10:08:14;102627.97;;;11.79;100.00
13732;BME280;6937;56.096;12.664;2023-05-18T10:10:43;102636.91;;;11.59;100.00
13732;BME280;6937;56.096;12.664;2023-05-18T10:13:12;102624.34;;;11.61;100.00
13732;BME280;6937;56.096;12.664;2023-05-18T10:15:51;102622.97;;;11.71;100.00
13732;BME280;6937;56.096;12.664;2023-05-18T10:18:32;102627.41;;;11.91;100.00
13732;BME280;6937;56.096;12.664;2023-05-18T10:20:59;102625.44;;;11.94;100.00
13732;BME280;6937;56.096;12.664;2023-05-18T10:23:29;102630.31;;;11.66;100.00
13732;BME280;6937;56.096;12.664;2023-05-18T10:25:56;102627.09;;;11.78;100.00
13732;BME280;6937;56.096;12.664;2023-05-18T10:28:27;102629.06;;;11.75;100.00
13732;BME280;6937;56.096;12.664;2023-05-18T10:30:57;102627.09;;;11.78;100.00
13732;BME280;6937;56.096;12.664;2023-05-18T10:33:25;102630.25;;;11.68;100.00
13732;BME280;6937;56.096;12.664;2023-05-18T10:35:51;102634.47;;;11.54;100.00
13732;BME280;6937;56.096;12.664;2023-05-18T10:38:25;102628.22;;;11.35;100.00
13732;BME280;6937;56.096;12.664;2023-05-18T10:40:55;102619.53;;;11.49;100.00
13732;BME280;6937;56.096;12.664;2023-05-18T10:43:23;102617.63;;;11.71;100.00
13732;BME280;6937;56.096;12.664;2023-05-18T10:45:59;102609.13;;;11.61;100.00
13732;BME280;6937;56.096;12.664;2023-05-18T10:48:26;102611.34;;;11.72;100.00
13732;BME280;6937;56.096;12.664;2023-05-18T10:50:53;102610.31;;;11.75;100.00
13732;BME280;6937;56.096;12.664;2023-05-18T10:53:20;102608.84;;;11.86;100.00
13732;BME280;6937;56.096;12.664;2023-05-18T10:55:47;102624.38;;;11.80;100.00
13732;BME280;6937;56.096;12.664;2023-05-18T10:58:14;102616.69;;;11.72;100.00
13732;BME280;6937;56.096;12.664;2023-05-18T11:00:43;102619.56;;;11.86;100.00
13732;BME280;6937;56.096;12.664;2023-05-18T11:03:12;102619.59;;;11.66;100.00
13732;BME280;6937;56.096;12.664;2023-05-18T11:05:38;102621.94;;;11.92;100.00
13732;BME280;6937;56.096;12.664;2023-05-18T11:08:04;102634.97;;;12.00;100.00
13732;BME280;6937;56.096;12.664;2023-05-18T11:10:48;102621.28;;;11.69;100.00
13732;BME280;6937;56.096;12.664;2023-05-18T11:13:13;102628.13;;;11.94;100.00
13732;BME280;6937;56.096;12.664;2023-05-18T11:18:50;102626.72;;;12.04;100.00
13732;BME280;6937;56.096;12.664;2023-05-18T11:24:19;102625.41;;;12.13;100.00
13732;BME280;6937;56.096;12.664;2023-05-18T11:26:47;102635.63;;;12.05;100.00
13732;BME280;6937;56.096;12.664;2023-05-18T11:29:44;102626.53;;;12.26;100.00
13732;BME280;6937;56.096;12.664;2023-05-18T11:32:27;102618.34;;;12.29;100.00
13732;BME280;6937;56.096;12.664;2023-05-18T11:34:54;102624.66;;;12.28;100.00
13732;BME280;6937;56.096;12.664;2023-05-18T11:43:07;102645.28;;;12.26;100.00
13732;BME280;6937;56.096;12.664;2023-05-18T11:45:33;102643.69;;;12.58;100.00
13732;BME280;6937;56.096;12.664;2023-05-18T11:48:00;102630.75;;;12.66;100.00
13732;BME280;6937;56.096;12.664;2023-05-18T11:50:29;102641.25;;;12.71;100.00
13732;BME280;6937;56.096;12.664;2023-05-18T11:52:56;102645.19;;;12.81;100.00
13732;BME280;6937;56.096;12.664;2023-05-18T11:55:36;102642.34;;;12.84;100.00
13732;BME280;6937;56.096;12.664;2023-05-18T11:58:06;102647.72;;;12.84;100.00
13732;BME280;6937;56.096;12.664;2023-05-18T12:00:35;102645.25;;;12.79;100.00
13732;BME280;6937;56.096;12.664;2023-05-18T12:03:05;102658.38;;;12.68;100.00
13732;BME280;6937;56.096;12.664;2023-05-18T12:05:32;102653.63;;;12.90;100.00
13732;BME280;6937;56.096;12.664;2023-05-18T12:08:01;102653.94;;;13.01;100.00
13732;BME280;6937;56.096;12.664;2023-05-18T12:10:33;102654.03;;;13.00;100.00
13732;BME280;6937;56.096;12.664;2023-05-18T12:13:02;102651.13;;;13.04;100.00
13732;BME280;6937;56.096;12.664;2023-05-18T12:15:29;102648.44;;;13.22;100.00
13732;BME280;6937;56.096;12.664;2023-05-18T12:17:57;102651.75;;;13.42;100.00
13732;BME280;6937;56.096;12.664;2023-05-18T12:20:23;102668.09;;;13.55;100.00
13732;BME280;6937;56.096;12.664;2023-05-18T12:22:51;102655.34;;;13.59;100.00
13732;BME280;6937;56.096;12.664;2023-05-18T12:25:21;102665.19;;;13.75;100.00
13732;BME280;6937;56.096;12.664;2023-05-18T12:27:52;102671.50;;;13.74;100.00
13732;BME280;6937;56.096;12.664;2023-05-18T12:30:20;102670.56;;;13.75;100.00
13732;BME280;6937;56.096;12.664;2023-05-18T12:32:54;102680.47;;;13.57;100.00
13732;BME280;6937;56.096;12.664;2023-05-18T12:35:28;102672.75;;;13.19;100.00
13732;BME280;6937;56.096;12.664;2023-05-18T12:37:56;102674.16;;;13.26;100.00
13732;BME280;6937;56.096;12.664;2023-05-18T12:40:26;102683.28;;;13.39;100.00
13732;BME280;6937;56.096;12.664;2023-05-18T12:42:54;102683.44;;;13.53;100.00
13732;BME280;6937;56.096;12.664;2023-05-18T12:45:28;102680.34;;;13.61;100.00
13732;BME280;6937;56.096;12.664;2023-05-18T12:48:05;102678.94;;;13.69;100.00
13732;BME280;6937;56.096;12.664;2023-05-18T12:50:31;102694.84;;;13.41;100.00
13732;BME280;6937;56.096;12.664;2023-05-18T12:52:57;102687.31;;;13.47;100.00
13732;BME280;6937;56.096;12.664;2023-05-18T12:55:24;102688.94;;;13.67;100.00
13732;BME280;6937;56.096;12.664;2023-05-18T12:58:03;102683.91;;;13.77;100.00
13732;BME280;6937;56.096;12.664;2023-05-18T13:00:33;102692.88;;;13.93;100.00
13732;BME280;6937;56.096;12.664;2023-05-18T13:03:09;102682.88;;;13.95;100.00
13732;BME280;6937;56.096;12.664;2023-05-18T13:05:36;102690.25;;;13.76;100.00
13732;BME280;6937;56.096;12.664;2023-05-18T13:08:02;102693.47;;;13.82;100.00
13732;BME280;6937;56.096;12.664;2023-05-18T13:10:29;102690.59;;;13.85;100.00
13732;BME280;6937;56.096;12.664;2023-05-18T13:12:56;102691.47;;;13.86;100.00